Time;durP1;ratioP1;P1;durP2;ratioP2;P2;SDS_P1;SDS_P2;PMS_P1;PMS_P2;Temp;Humidity;BMP_temperature;BMP_pressure;BME280_temperature;BME280_humidity;BME280_pressure;Samples;Min_cycle;Max_cycle;Signal;HPM_P1;HPM_P2
2023/03/23 00:00:49;;;;;;;3.40;1.90;;;13.00;92.90;;;;;;5035815;28;20439;-74
2023/03/23 00:03:18;;;;;;;3.97;2.30;;;13.00;92.90;;;;;;5028902;28;20448;-75
2023/03/23 00:05:49;;;;;;;2.55;1.60;;;13.00;92.90;;;;;;5024098;28;20437;-74
2023/03/23 00:08:17;;;;;;;1.60;1.50;;;13.00;93.00;;;;;;5032621;28;20455;-74
2023/03/23 00:10:43;;;;;;;2.97;1.70;;;13.00;92.90;;;;;;5029977;28;20487;-74
2023/03/23 00:13:11;;;;;;;4.00;1.98;;;13.00;92.80;;;;;;5028062;28;20446;-74
2023/03/23 00:15:41;;;;;;;2.30;1.90;;;13.00;93.10;;;;;;5028299;28;20426;-74
2023/03/23 00:18:08;;;;;;;3.55;1.95;;;13.00;92.90;;;;;;5024562;28;20873;-74
2023/03/23 00:20:40;;;;;;;2.28;1.70;;;13.00;93.10;;;;;;5018286;28;20525;-74
2023/03/23 00:23:07;;;;;;;2.40;1.70;;;13.00;92.90;;;;;;5025102;28;20916;-74
2023/03/23 00:25:34;;;;;;;3.28;1.70;;;13.00;92.90;;;;;;5025954;28;20453;-74
2023/03/23 00:28:02;;;;;;;2.00;1.50;;;13.00;92.90;;;;;;5033172;28;20459;-75
2023/03/23 00:30:29;;;;;;;2.15;1.75;;;13.00;92.90;;;;;;5022372;28;20443;-74
2023/03/23 00:32:57;;;;;;;2.85;1.60;;;13.00;93.00;;;;;;5019373;28;20506;-74
2023/03/23 00:35:25;;;;;;;1.40;1.30;;;13.00;92.90;;;;;;5022931;28;20778;-74
2023/03/23 00:37:53;;;;;;;1.73;1.52;;;13.00;93.10;;;;;;5026312;28;20491;-75
2023/03/23 00:40:19;;;;;;;2.03;1.42;;;13.00;93.00;;;;;;5022266;28;20434;-75
2023/03/23 00:42:48;;;;;;;2.67;1.40;;;13.00;93.10;;;;;;5023084;28;20524;-75
2023/03/23 00:45:16;;;;;;;1.77;1.50;;;13.00;93.00;;;;;;5024206;28;20501;-74
2023/03/23 00:47:46;;;;;;;2.20;1.40;;;13.00;93.00;;;;;;5023278;28;20430;-75
2023/03/23 00:50:13;;;;;;;1.65;1.40;;;13.00;93.00;;;;;;5030242;28;20479;-74
2023/03/23 00:52:40;;;;;;;2.15;1.30;;;13.00;92.90;;;;;;5034537;28;20437;-75
2023/03/23 00:55:09;;;;;;;2.28;1.50;;;13.00;92.70;;;;;;5019818;28;20490;-74
2023/03/23 00:57:36;;;;;;;1.73;1.50;;;13.00;92.80;;;;;;5019383;28;20581;-74
2023/03/23 01:00:08;;;;;;;1.70;1.15;;;13.00;92.60;;;;;;5016523;28;20862;-74
2023/03/23 01:02:35;;;;;;;1.60;1.40;;;13.10;92.50;;;;;;5023838;28;20431;-74
2023/03/23 01:05:03;;;;;;;2.40;1.42;;;13.10;93.40;;;;;;5024221;28;20443;-74
2023/03/23 01:07:30;;;;;;;1.70;1.58;;;13.00;93.90;;;;;;5018484;28;20456;-74
2023/03/23 01:10:00;;;;;;;2.13;1.60;;;12.90;94.30;;;;;;5019609;28;20433;-74
2023/03/23 01:12:28;;;;;;;2.70;1.40;;;12.80;94.10;;;;;;5021789;28;20442;-75
2023/03/23 01:14:55;;;;;;;2.40;1.60;;;12.80;94.10;;;;;;5021009;28;20437;-74
2023/03/23 01:17:22;;;;;;;2.17;1.60;;;12.80;93.90;;;;;;5023877;28;20533;-75
2023/03/23 01:19:49;;;;;;;1.50;1.40;;;12.80;94.20;;;;;;5036352;28;20793;-74
2023/03/23 01:22:15;;;;;;;2.60;1.63;;;12.80;93.70;;;;;;5039623;28;20436;-74
2023/03/23 01:24:42;;;;;;;1.50;1.40;;;12.80;93.40;;;;;;5034052;28;20959;-74
2023/03/23 01:27:09;;;;;;;2.30;1.50;;;12.80;93.40;;;;;;5042028;28;20437;-74
2023/03/23 01:29:37;;;;;;;1.60;1.40;;;12.90;93.00;;;;;;5025906;28;20447;-74
2023/03/23 01:32:04;;;;;;;1.67;1.57;;;12.90;93.10;;;;;;5024434;28;20470;-74
2023/03/23 01:34:31;;;;;;;1.60;1.40;;;12.90;93.00;;;;;;5022510;28;20453;-74
2023/03/23 01:36:57;;;;;;;1.60;1.50;;;12.90;93.00;;;;;;5038283;28;20518;-74
2023/03/23 01:39:24;;;;;;;1.50;1.40;;;13.00;92.90;;;;;;5040708;28;20508;-74
2023/03/23 01:41:51;;;;;;;2.00;1.70;;;12.90;93.10;;;;;;5033707;28;20441;-75
2023/03/23 01:44:55;;;;;;;1.90;1.60;;;13.00;93.40;;;;;;5037573;28;20579;-74
2023/03/23 01:47:26;;;;;;;2.40;1.73;;;12.90;94.30;;;;;;5034627;28;20447;-74
2023/03/23 01:49:53;;;;;;;3.90;1.90;;;12.80;95.10;;;;;;5030883;28;20440;-75
2023/03/23 01:52:24;;;;;;;2.30;2.10;;;12.80;96.60;;;;;;5025938;28;20512;-73
2023/03/23 01:54:56;;;;;;;2.92;1.80;;;12.60;97.70;;;;;;5034959;28;20453;-74
2023/03/23 01:57:26;;;;;;;2.90;2.00;;;12.40;99.10;;;;;;5028110;28;20508;-74
2023/03/23 01:59:55;;;;;;;2.50;2.20;;;12.20;99.90;;;;;;5031925;28;20566;-74
2023/03/23 02:02:26;;;;;;;2.10;1.90;;;12.10;99.90;;;;;;5026484;28;20498;-74
2023/03/23 02:04:59;;;;;;;2.30;2.10;;;12.00;99.90;;;;;;5022952;28;20521;-74
2023/03/23 02:07:27;;;;;;;2.30;2.10;;;12.00;99.90;;;;;;5022440;28;20927;-74
2023/03/23 02:09:54;;;;;;;2.65;2.40;;;11.90;99.90;;;;;;5025289;28;20454;-74
2023/03/23 02:12:21;;;;;;;3.88;2.20;;;11.80;99.90;;;;;;5021844;28;20449;-74
2023/03/23 02:14:47;;;;;;;2.40;2.20;;;11.80;99.90;;;;;;5015136;28;20538;-73
2023/03/23 02:17:23;;;;;;;3.00;2.20;;;11.80;99.90;;;;;;5023290;28;20495;-73
2023/03/23 02:20:13;;;;;;;2.20;2.00;;;11.70;99.90;;;;;;5027004;28;20465;-74
2023/03/23 02:23:24;;;;;;;3.00;2.10;;;11.70;99.90;;;;;;5012979;28;20510;-74
2023/03/23 02:26:12;;;;;;;2.60;2.40;;;11.70;99.90;;;;;;5016325;28;20500;-74
2023/03/23 02:29:20;;;;;;;2.50;2.30;;;11.70;99.90;;;;;;5032565;28;20548;-73
2023/03/23 02:32:06;;;;;;;2.67;2.40;;;11.60;99.90;;;;;;4931846;28;20465;-74
2023/03/23 02:34:40;;;;;;;2.50;2.30;;;11.60;99.90;;;;;;5002972;28;20437;-73
2023/03/23 02:37:13;;;;;;;4.00;2.50;;;11.60;99.90;;;;;;5027314;28;20516;-73
2023/03/23 02:39:46;;;;;;;3.50;3.03;;;11.60;99.90;;;;;;5027374;28;20612;-74
2023/03/23 02:42:16;;;;;;;3.03;2.42;;;11.60;99.90;;;;;;5026123;28;20433;-74
2023/03/23 02:44:46;;;;;;;4.50;2.60;;;11.50;99.90;;;;;;5027648;28;20431;-74
2023/03/23 02:47:18;;;;;;;2.53;2.30;;;11.50;99.90;;;;;;5019864;28;20474;-74
2023/03/23 02:49:50;;;;;;;2.28;2.08;;;11.50;99.90;;;;;;5028819;28;20431;-74
2023/03/23 02:52:20;;;;;;;2.33;2.10;;;11.50;99.90;;;;;;5014179;28;20440;-74
2023/03/23 02:54:49;;;;;;;2.45;1.77;;;11.50;99.90;;;;;;5025267;28;20927;-73
2023/03/23 02:57:17;;;;;;;2.47;2.17;;;11.60;99.90;;;;;;5030701;28;20440;-73
2023/03/23 02:59:44;;;;;;;2.20;2.00;;;11.60;99.90;;;;;;5021656;28;20434;-74
2023/03/23 03:02:16;;;;;;;2.08;1.52;;;11.60;99.90;;;;;;5016350;28;20503;-74
2023/03/23 03:04:54;;;;;;;2.33;1.90;;;11.70;99.90;;;;;;5025593;28;20431;-74
2023/03/23 03:07:58;;;;;;;2.05;1.55;;;11.70;99.90;;;;;;5019143;28;20799;-74
2023/03/23 03:10:27;;;;;;;2.00;1.80;;;11.80;99.90;;;;;;5012328;28;20503;-73
2023/03/23 03:13:00;;;;;;;2.40;1.60;;;11.90;99.80;;;;;;5059818;22;20440;-72
2023/03/23 03:15:32;;;;;;;1.60;1.50;;;11.90;99.90;;;;;;5082865;28;20894;-72
2023/03/23 03:18:06;;;;;;;1.95;1.50;;;11.90;99.70;;;;;;5093067;28;20432;-72
2023/03/23 03:20:38;;;;;;;1.70;1.60;;;11.90;99.80;;;;;;5091655;28;20512;-72
2023/03/23 03:23:09;;;;;;;2.35;1.80;;;11.90;99.60;;;;;;5100147;28;20425;-72
2023/03/23 03:25:36;;;;;;;2.07;1.60;;;11.90;99.90;;;;;;5082804;28;20429;-71
2023/03/23 03:28:04;;;;;;;1.55;1.40;;;11.90;99.80;;;;;;5094744;28;20430;-72
2023/03/23 03:30:35;;;;;;;2.33;1.50;;;11.90;99.50;;;;;;5073908;28;21093;-72
2023/03/23 03:33:02;;;;;;;1.70;1.60;;;11.90;99.30;;;;;;5088477;28;20434;-72
2023/03/23 03:35:32;;;;;;;2.28;1.40;;;11.90;99.50;;;;;;5083460;28;20515;-72
2023/03/23 03:38:07;;;;;;;1.75;1.40;;;11.90;99.60;;;;;;5081495;28;20426;-72
2023/03/23 03:40:34;;;;;;;1.60;1.50;;;11.90;99.60;;;;;;5093523;28;20454;-71
2023/03/23 03:43:00;;;;;;;2.30;1.90;;;11.90;99.70;;;;;;5085309;28;20488;-72
2023/03/23 03:45:27;;;;;;;1.55;1.40;;;11.90;99.70;;;;;;5077115;28;20445;-71
2023/03/23 03:47:54;;;;;;;1.70;1.40;;;11.80;99.60;;;;;;5092376;28;20441;-70
2023/03/23 03:50:21;;;;;;;1.63;1.40;;;11.90;99.20;;;;;;5075986;28;20519;-71
2023/03/23 03:52:48;;;;;;;1.30;1.10;;;11.90;99.30;;;;;;5075508;28;20919;-72
2023/03/23 03:55:16;;;;;;;1.40;1.30;;;11.90;99.60;;;;;;5080631;28;20919;-71
2023/03/23 03:57:43;;;;;;;1.60;1.35;;;11.90;99.70;;;;;;5079065;28;20905;-72
2023/03/23 04:00:14;;;;;;;1.30;1.20;;;11.90;99.20;;;;;;5094458;28;20424;-71
2023/03/23 04:02:42;;;;;;;1.67;1.50;;;11.90;99.70;;;;;;5083821;28;20437;-71
2023/03/23 04:05:09;;;;;;;1.50;1.40;;;11.90;99.80;;;;;;5074314;28;20426;-72
2023/03/23 04:07:39;;;;;;;1.80;1.50;;;11.90;99.60;;;;;;5085149;28;20437;-71
2023/03/23 04:10:06;;;;;;;1.83;1.38;;;11.90;99.90;;;;;;5079117;28;20519;-73
2023/03/23 04:12:35;;;;;;;1.60;1.50;;;11.90;99.90;;;;;;5080817;28;20433;-72
2023/03/23 04:15:02;;;;;;;1.40;1.30;;;11.90;99.80;;;;;;5076287;28;20514;-72
2023/03/23 04:17:29;;;;;;;1.70;1.60;;;11.90;99.60;;;;;;5080300;28;20816;-71
2023/03/23 04:19:57;;;;;;;1.88;1.67;;;11.90;99.40;;;;;;5083855;28;20437;-71
2023/03/23 04:22:29;;;;;;;1.70;1.30;;;11.90;99.80;;;;;;5096533;28;20920;-72
2023/03/23 04:24:59;;;;;;;2.05;1.20;;;11.90;99.60;;;;;;5091962;28;20465;-72
2023/03/23 04:27:27;;;;;;;1.70;1.50;;;11.90;99.90;;;;;;5086521;28;20429;-72
2023/03/23 04:29:57;;;;;;;1.50;1.37;;;11.90;99.40;;;;;;5081158;28;20431;-71
2023/03/23 04:32:28;;;;;;;1.50;1.40;;;11.90;99.40;;;;;;5077032;28;20915;-72
2023/03/23 04:34:55;;;;;;;2.65;1.80;;;12.00;99.10;;;;;;5084592;28;20444;-71
2023/03/23 04:37:25;;;;;;;2.10;1.67;;;12.00;99.00;;;;;;5073850;28;20438;-72
2023/03/23 04:39:59;;;;;;;1.70;1.60;;;12.00;99.40;;;;;;5088571;28;20430;-72
2023/03/23 04:42:27;;;;;;;1.77;1.67;;;12.00;99.30;;;;;;5079430;28;20925;-72
2023/03/23 04:44:55;;;;;;;2.63;1.70;;;12.00;99.20;;;;;;5085744;28;20426;-72
2023/03/23 04:47:22;;;;;;;2.50;1.70;;;12.00;99.60;;;;;;5080594;28;20798;-72
2023/03/23 04:49:49;;;;;;;1.77;1.60;;;11.90;99.40;;;;;;5086371;28;20426;-72
2023/03/23 04:52:16;;;;;;;2.30;1.70;;;12.00;99.80;;;;;;5084827;28;20428;-71
2023/03/23 04:54:42;;;;;;;2.72;2.17;;;12.00;99.40;;;;;;5088483;28;20437;-71
2023/03/23 04:57:09;;;;;;;2.05;1.60;;;12.00;99.80;;;;;;5080156;28;20811;-72
2023/03/23 04:59:36;;;;;;;1.83;1.50;;;12.00;99.70;;;;;;5077933;28;20800;-73
2023/03/23 05:02:04;;;;;;;2.00;1.80;;;12.00;99.60;;;;;;5077571;28;20798;-72
2023/03/23 05:04:33;;;;;;;1.85;1.75;;;12.00;99.70;;;;;;5077327;28;20434;-72
2023/03/23 05:07:00;;;;;;;2.08;1.80;;;12.00;99.60;;;;;;5094104;28;20541;-72
2023/03/23 05:09:27;;;;;;;2.22;1.63;;;12.00;99.90;;;;;;5086633;28;20436;-63
2023/03/23 05:11:53;;;;;;;1.98;1.70;;;12.00;99.70;;;;;;5071161;28;20593;-63
2023/03/23 05:14:21;;;;;;;1.60;1.50;;;12.10;99.20;;;;;;5080306;28;20433;-64
2023/03/23 05:16:48;;;;;;;2.05;1.85;;;12.20;99.30;;;;;;5084804;28;20491;-71
2023/03/23 05:19:16;;;;;;;3.90;1.70;;;12.10;99.10;;;;;;5089246;28;20491;-71
2023/03/23 05:21:44;;;;;;;1.50;1.40;;;12.10;99.00;;;;;;5089835;28;20431;-72
2023/03/23 05:24:10;;;;;;;2.10;1.70;;;12.10;99.20;;;;;;5073574;28;20754;-71
2023/03/23 05:26:37;;;;;;;2.60;1.90;;;12.10;99.40;;;;;;5089448;28;20437;-71
2023/03/23 05:29:04;;;;;;;2.22;1.90;;;12.10;99.10;;;;;;5084214;28;20430;-71
2023/03/23 05:31:31;;;;;;;2.22;2.03;;;12.10;99.40;;;;;;5089341;28;20796;-71
2023/03/23 05:33:58;;;;;;;2.80;2.00;;;12.10;99.30;;;;;;5081373;28;20444;-64
2023/03/23 05:36:27;;;;;;;2.47;1.90;;;12.10;99.20;;;;;;5081759;28;20429;-70
2023/03/23 05:38:54;;;;;;;2.20;2.00;;;12.20;99.00;;;;;;5080626;28;20429;-71
2023/03/23 05:41:21;;;;;;;2.40;2.20;;;12.10;98.90;;;;;;5088333;28;20452;-71
2023/03/23 05:43:47;;;;;;;2.40;2.20;;;12.10;98.90;;;;;;5074360;28;20447;-71
2023/03/23 05:46:14;;;;;;;2.30;2.10;;;12.10;98.70;;;;;;5079497;28;20436;-71
2023/03/23 05:48:41;;;;;;;3.40;2.30;;;12.10;98.70;;;;;;5083969;28;20437;-71
2023/03/23 05:51:08;;;;;;;2.10;1.90;;;12.10;98.70;;;;;;5092064;28;20426;-72
2023/03/23 05:53:36;;;;;;;2.97;2.28;;;12.10;98.60;;;;;;5080432;28;20571;-71
2023/03/23 05:56:04;;;;;;;3.10;2.33;;;12.10;98.60;;;;;;5074124;28;20933;-71
2023/03/23 05:58:31;;;;;;;2.50;2.30;;;12.10;98.80;;;;;;5082993;28;20965;-71
2023/03/23 06:00:57;;;;;;;2.47;2.28;;;12.10;98.50;;;;;;5073020;28;20447;-70
2023/03/23 06:03:25;;;;;;;2.80;2.50;;;12.00;98.40;;;;;;5072267;28;20946;-70
2023/03/23 06:05:52;;;;;;;2.90;2.28;;;12.00;98.20;;;;;;5074440;28;20437;-70
2023/03/23 06:08:18;;;;;;;2.38;2.15;;;12.00;98.40;;;;;;5077145;28;20512;-70
2023/03/23 06:10:48;;;;;;;2.50;2.30;;;12.00;98.30;;;;;;5074662;28;20429;-71
2023/03/23 06:13:14;;;;;;;2.72;2.10;;;12.00;98.20;;;;;;5069454;28;20432;-70
2023/03/23 06:15:41;;;;;;;2.95;2.38;;;12.00;97.80;;;;;;5079200;28;20417;-70
2023/03/23 06:18:08;;;;;;;2.63;2.20;;;12.00;97.50;;;;;;5085113;28;20434;-70
2023/03/23 06:20:36;;;;;;;2.92;2.50;;;12.00;97.10;;;;;;5082201;28;20429;-71
2023/03/23 06:23:03;;;;;;;2.70;2.30;;;12.10;96.90;;;;;;5079648;28;20428;-70
2023/03/23 06:25:30;;;;;;;2.22;2.03;;;12.10;96.80;;;;;;5088074;28;20912;-70
2023/03/23 06:27:58;;;;;;;3.17;2.38;;;12.10;97.10;;;;;;5079178;28;20469;-70
2023/03/23 06:30:26;;;;;;;2.50;2.17;;;12.20;96.60;;;;;;5077700;28;20421;-71
2023/03/23 06:32:53;;;;;;;2.70;2.20;;;12.20;95.90;;;;;;5078938;28;20426;-71
2023/03/23 06:35:20;;;;;;;2.35;2.10;;;12.20;95.00;;;;;;5081557;28;20436;-70
2023/03/23 06:37:47;;;;;;;2.30;1.90;;;12.30;94.70;;;;;;5084162;28;20539;-70
2023/03/23 06:40:14;;;;;;;2.30;2.10;;;12.30;94.80;;;;;;5085549;28;20425;-70
2023/03/23 06:42:41;;;;;;;2.60;1.83;;;12.30;94.50;;;;;;5075816;28;20817;-70
2023/03/23 06:45:10;;;;;;;3.28;2.10;;;12.40;93.70;;;;;;5082645;28;20435;-70
2023/03/23 06:47:37;;;;;;;2.97;2.00;;;12.40;93.80;;;;;;5071787;28;20927;-71
2023/03/23 06:50:04;;;;;;;2.57;2.00;;;12.50;93.30;;;;;;5079769;28;20935;-70
2023/03/23 06:52:31;;;;;;;1.95;1.67;;;12.50;93.30;;;;;;5078284;28;20431;-71
2023/03/23 06:54:58;;;;;;;2.95;1.70;;;12.60;92.90;;;;;;5078214;28;20432;-70
2023/03/23 06:57:25;;;;;;;2.65;1.60;;;12.60;92.90;;;;;;5082433;28;20431;-69
2023/03/23 06:59:51;;;;;;;2.90;1.70;;;12.60;92.60;;;;;;5079199;28;20921;-72
2023/03/23 07:02:19;;;;;;;1.90;1.70;;;12.70;92.30;;;;;;5076892;28;20569;-72
2023/03/23 07:04:46;;;;;;;2.38;1.70;;;12.70;92.10;;;;;;5083078;28;20432;-72
2023/03/23 07:07:14;;;;;;;2.60;1.73;;;12.70;91.60;;;;;;5084502;28;21130;-72
2023/03/23 07:09:42;;;;;;;3.22;1.65;;;12.70;91.90;;;;;;5082272;28;20433;-73
2023/03/23 07:12:09;;;;;;;1.95;1.40;;;12.80;91.90;;;;;;5079730;28;20475;-73
2023/03/23 07:14:36;;;;;;;3.10;1.50;;;12.80;91.60;;;;;;5087992;28;20520;-73
2023/03/23 07:17:05;;;;;;;3.58;1.77;;;12.80;91.70;;;;;;5093100;28;20453;-71
2023/03/23 07:19:33;;;;;;;2.00;1.30;;;12.80;91.70;;;;;;5086518;28;20872;-73
2023/03/23 07:22:00;;;;;;;2.20;1.55;;;12.90;91.30;;;;;;5080559;28;20455;-72
2023/03/23 07:24:27;;;;;;;3.42;1.40;;;12.90;91.50;;;;;;5085305;28;20940;-72
2023/03/23 07:26:54;;;;;;;3.63;1.60;;;12.90;91.50;;;;;;5084304;28;20438;-73
2023/03/23 07:29:21;;;;;;;2.70;1.40;;;13.00;90.70;;;;;;5083027;28;20437;-72
2023/03/23 07:31:47;;;;;;;2.80;1.50;;;13.00;90.50;;;;;;5087877;28;20430;-71
2023/03/23 07:34:14;;;;;;;3.00;1.40;;;13.00;90.50;;;;;;5077678;28;20439;-71
2023/03/23 07:36:43;;;;;;;2.03;1.40;;;13.10;90.00;;;;;;5078505;28;20450;-71
2023/03/23 07:39:09;;;;;;;3.45;1.30;;;13.10;89.30;;;;;;5080375;28;20807;-72
2023/03/23 07:41:37;;;;;;;1.55;1.35;;;13.10;89.20;;;;;;5079061;28;20426;-71
2023/03/23 07:44:04;;;;;;;1.90;1.48;;;13.20;88.50;;;;;;5073927;28;20966;-70
2023/03/23 07:46:31;;;;;;;2.60;1.60;;;13.20;88.40;;;;;;5084343;28;20426;-71
2023/03/23 07:48:58;;;;;;;2.45;1.33;;;13.30;87.70;;;;;;5082035;28;20431;-71
2023/03/23 07:51:25;;;;;;;2.80;1.40;;;13.30;87.10;;;;;;5084324;28;20497;-71
2023/03/23 07:53:53;;;;;;;3.00;1.50;;;13.30;87.60;;;;;;5079084;28;20418;-71
2023/03/23 07:56:20;;;;;;;2.33;1.40;;;13.30;86.50;;;;;;5082832;28;20464;-71
2023/03/23 07:58:47;;;;;;;3.40;1.80;;;13.30;86.90;;;;;;5084980;28;20431;-72
2023/03/23 08:01:15;;;;;;;2.90;1.30;;;13.30;87.00;;;;;;5079409;28;20427;-71
2023/03/23 08:03:42;;;;;;;1.90;1.50;;;13.40;85.20;;;;;;5081904;28;20428;-71
2023/03/23 08:06:09;;;;;;;3.25;1.48;;;13.40;85.30;;;;;;5084609;28;20449;-70
2023/03/23 08:08:36;;;;;;;2.60;1.23;;;13.50;84.20;;;;;;5080731;28;20440;-69
2023/03/23 08:11:05;;;;;;;2.30;1.35;;;13.50;84.10;;;;;;5079509;28;20504;-70
2023/03/23 08:13:33;;;;;;;3.30;1.60;;;13.50;85.10;;;;;;5085794;28;20818;-69
2023/03/23 08:16:03;;;;;;;2.60;1.23;;;13.60;84.10;;;;;;5089203;28;20518;-70
2023/03/23 08:18:30;;;;;;;3.10;1.50;;;13.60;84.00;;;;;;5092764;28;20428;-70
2023/03/23 08:20:56;;;;;;;2.20;1.40;;;13.70;82.50;;;;;;5087696;28;20430;-71
2023/03/23 08:23:24;;;;;;;3.13;1.35;;;13.70;82.40;;;;;;5078463;28;20610;-70
2023/03/23 08:25:54;;;;;;;2.60;1.40;;;13.70;82.40;;;;;;5075442;28;20431;-71
2023/03/23 08:28:22;;;;;;;2.42;1.38;;;13.70;81.50;;;;;;5084186;28;20435;-70
2023/03/23 08:30:49;;;;;;;3.38;1.38;;;13.70;81.80;;;;;;5074695;28;20443;-70
2023/03/23 08:33:16;;;;;;;2.30;1.40;;;13.70;82.10;;;;;;5095433;28;20431;-70
2023/03/23 08:35:43;;;;;;;1.80;1.35;;;13.80;81.70;;;;;;5079854;28;20443;-70
2023/03/23 08:38:11;;;;;;;3.53;1.20;;;13.80;81.70;;;;;;5083704;28;20429;-70
2023/03/23 08:40:39;;;;;;;2.70;1.30;;;13.90;81.10;;;;;;5089054;28;20434;-72
2023/03/23 08:43:06;;;;;;;2.17;1.80;;;13.90;80.90;;;;;;5084313;28;20873;-70
2023/03/23 08:45:35;;;;;;;3.80;1.58;;;14.00;80.90;;;;;;5084171;28;20438;-71
2023/03/23 08:48:01;;;;;;;2.90;1.45;;;14.00;80.10;;;;;;5083857;28;20448;-71
2023/03/23 08:50:30;;;;;;;2.97;1.40;;;14.00;79.50;;;;;;5077147;28;20545;-71
2023/03/23 08:52:58;;;;;;;2.35;1.50;;;14.10;79.20;;;;;;5079697;28;20434;-70
2023/03/23 08:55:26;;;;;;;3.63;1.50;;;14.10;78.80;;;;;;5078166;28;20845;-71
2023/03/23 08:57:53;;;;;;;5.28;1.58;;;14.10;78.80;;;;;;5087163;28;20717;-70
2023/03/23 09:00:24;;;;;;;1.80;1.20;;;14.20;79.40;;;;;;5091007;28;20467;-71
2023/03/23 09:02:53;;;;;;;2.92;1.40;;;14.20;78.50;;;;;;5079277;28;20441;-70
2023/03/23 09:05:24;;;;;;;2.80;1.20;;;14.20;78.70;;;;;;5078823;28;20438;-70
2023/03/23 09:07:52;;;;;;;3.10;1.70;;;14.20;79.20;;;;;;5080739;28;20452;-71
2023/03/23 09:10:20;;;;;;;5.20;1.92;;;14.20;76.10;;;;;;5079438;28;20486;-71
2023/03/23 09:12:47;;;;;;;2.83;1.60;;;14.20;76.20;;;;;;5080457;28;20438;-71
2023/03/23 09:15:15;;;;;;;3.25;1.83;;;14.20;76.00;;;;;;5076079;28;20462;-75
2023/03/23 09:17:44;;;;;;;2.47;1.58;;;14.20;77.40;;;;;;5079567;28;20431;-71
2023/03/23 09:20:14;;;;;;;2.60;1.60;;;14.30;76.10;;;;;;5072936;28;20510;-70
2023/03/23 09:22:45;;;;;;;3.75;1.50;;;14.40;75.40;;;;;;5087047;28;22281;-70
2023/03/23 09:25:14;;;;;;;2.58;1.45;;;14.50;74.40;;;;;;5090167;28;20478;-71
2023/03/23 09:27:43;;;;;;;4.45;1.55;;;14.50;74.70;;;;;;5081817;28;20431;-70
2023/03/23 09:30:12;;;;;;;5.00;1.60;;;14.60;72.00;;;;;;5079102;28;20464;-71
2023/03/23 09:32:39;;;;;;;2.63;1.30;;;14.60;72.80;;;;;;5072944;28;21083;-70
2023/03/23 09:35:11;;;;;;;2.90;1.40;;;14.70;72.20;;;;;;5082137;28;21459;-70
2023/03/23 09:37:40;;;;;;;3.47;1.35;;;14.70;71.70;;;;;;5075590;28;20459;-72
2023/03/23 09:40:13;;;;;;;3.10;1.52;;;14.70;70.40;;;;;;5081370;28;20433;-71
2023/03/23 09:42:51;;;;;;;5.43;1.60;;;14.70;71.60;;;;;;5078317;28;22258;-70
2023/03/23 09:45:26;;;;;;;4.10;1.40;;;14.70;71.50;;;;;;5070360;28;20433;-70
2023/03/23 09:48:07;;;;;;;4.50;1.65;;;14.70;69.90;;;;;;5068653;28;20484;-70
2023/03/23 09:50:36;;;;;;;4.03;1.60;;;14.80;69.90;;;;;;5070687;28;20433;-70
2023/03/23 09:53:12;;;;;;;4.10;1.80;;;14.90;69.50;;;;;;5084480;28;20425;-71
2023/03/23 09:55:39;;;;;;;4.40;1.58;;;14.90;64.60;;;;;;5076849;28;20427;-71
2023/03/23 09:58:13;;;;;;;4.80;1.60;;;14.80;66.00;;;;;;5078233;28;20417;-71
2023/03/23 10:00:43;;;;;;;3.80;1.60;;;14.80;65.10;;;;;;5077296;28;20495;-72
2023/03/23 10:03:15;;;;;;;3.15;1.25;;;14.70;66.10;;;;;;5078382;28;20503;-71
2023/03/23 10:05:45;;;;;;;3.53;1.55;;;14.80;66.90;;;;;;5078769;28;20793;-70
2023/03/23 10:08:18;;;;;;;3.63;1.20;;;14.80;67.20;;;;;;5084431;28;20811;-71
2023/03/23 10:10:54;;;;;;;2.85;1.30;;;14.90;67.30;;;;;;5084365;28;20494;-70
2023/03/23 10:13:33;;;;;;;2.70;1.30;;;15.00;67.50;;;;;;5090211;28;20437;-71
2023/03/23 10:16:00;;;;;;;3.08;1.23;;;15.10;68.20;;;;;;5087198;28;20418;-71
2023/03/23 10:18:37;;;;;;;2.35;1.42;;;15.20;68.20;;;;;;5087096;28;20426;-70
2023/03/23 10:21:04;;;;;;;2.17;0.90;;;15.30;68.50;;;;;;5082783;28;20433;-70
2023/03/23 10:23:48;;;;;;;3.00;1.45;;;15.40;69.20;;;;;;5079269;28;20919;-70
2023/03/23 10:26:27;;;;;;;2.40;1.10;;;15.50;69.10;;;;;;5074431;28;20430;-70
2023/03/23 10:29:00;;;;;;;3.08;1.20;;;15.40;69.70;;;;;;5076408;28;20426;-74
2023/03/23 10:31:35;;;;;;;2.83;1.10;;;15.30;71.20;;;;;;5071254;28;20513;-71
2023/03/23 10:34:10;;;;;;;3.30;1.40;;;15.20;72.10;;;;;;5076555;28;20433;-71
2023/03/23 10:36:41;;;;;;;1.90;0.90;;;15.10;73.70;;;;;;5073350;28;20438;-71
2023/03/23 10:39:14;;;;;;;1.90;1.17;;;15.00;75.00;;;;;;5079204;28;20437;-70
2023/03/23 10:41:41;;;;;;;1.77;0.90;;;14.90;76.50;;;;;;5078817;28;20441;-71
2023/03/23 10:44:17;;;;;;;2.07;1.00;;;14.70;77.80;;;;;;5078490;28;20512;-71
2023/03/23 10:46:48;;;;;;;1.40;0.90;;;14.70;79.90;;;;;;5078502;28;20430;-71
2023/03/23 10:49:20;;;;;;;2.00;0.88;;;14.60;80.90;;;;;;5071573;28;20433;-71
2023/03/23 10:51:56;;;;;;;1.80;1.00;;;14.50;81.70;;;;;;5077694;28;20435;-71
2023/03/23 10:54:33;;;;;;;1.60;0.80;;;14.40;82.90;;;;;;5072494;28;20466;-71
2023/03/23 10:57:00;;;;;;;1.40;0.70;;;14.40;83.90;;;;;;5078686;28;20496;-71
2023/03/23 10:59:29;;;;;;;2.10;0.80;;;14.40;83.70;;;;;;5071805;28;20800;-71
2023/03/23 11:01:59;;;;;;;1.00;0.80;;;14.40;84.30;;;;;;5080231;28;20507;-71
2023/03/23 11:04:26;;;;;;;1.20;0.80;;;14.50;84.20;;;;;;5078934;28;20436;-71
2023/03/23 11:07:00;;;;;;;2.55;0.80;;;14.60;83.10;;;;;;5072625;28;20473;-71
2023/03/23 11:09:37;;;;;;;1.20;0.73;;;14.70;83.10;;;;;;5071332;28;20435;-72
2023/03/23 11:12:04;;;;;;;1.70;1.00;;;14.80;82.10;;;;;;5076822;28;20457;-72
2023/03/23 11:14:34;;;;;;;1.60;0.90;;;14.90;82.40;;;;;;5080790;28;20451;-72
2023/03/23 11:17:03;;;;;;;2.00;0.95;;;15.10;80.90;;;;;;5079872;28;20506;-72
2023/03/23 11:19:31;;;;;;;1.45;0.80;;;15.30;80.20;;;;;;5076593;28;20432;-72
2023/03/23 11:22:08;;;;;;;1.50;0.70;;;15.40;77.10;;;;;;5079309;28;20443;-72
2023/03/23 11:24:42;;;;;;;1.13;0.70;;;15.40;77.20;;;;;;5101696;22;20458;-74
2023/03/23 11:27:10;;;;;;;1.20;0.70;;;15.40;76.30;;;;;;5062028;28;20577;-75
2023/03/23 11:29:49;;;;;;;2.58;0.90;;;15.30;77.00;;;;;;5056985;28;20458;-73
2023/03/23 11:32:17;;;;;;;1.80;0.80;;;15.10;78.70;;;;;;5061560;28;20449;-73
2023/03/23 11:34:47;;;;;;;2.92;1.20;;;15.00;79.40;;;;;;5067986;28;20437;-71
2023/03/23 11:37:19;;;;;;;3.15;1.00;;;15.00;79.70;;;;;;5063924;28;20425;-73
2023/03/23 11:39:55;;;;;;;2.08;0.90;;;15.10;79.40;;;;;;5062191;28;20520;-73
2023/03/23 11:42:27;;;;;;;2.00;0.90;;;15.00;79.60;;;;;;5047026;28;20512;-74
2023/03/23 11:44:56;;;;;;;1.70;1.00;;;15.00;79.60;;;;;;5054313;28;20450;-77
2023/03/23 11:47:32;;;;;;;1.80;0.80;;;14.90;79.90;;;;;;5056098;28;20466;-76
2023/03/23 11:50:05;;;;;;;2.83;1.10;;;14.90;80.40;;;;;;5054957;28;20450;-66
2023/03/23 11:52:41;;;;;;;2.13;1.10;;;14.80;81.80;;;;;;5059553;28;20442;-66
2023/03/23 11:55:15;;;;;;;1.40;0.80;;;14.80;82.40;;;;;;5058916;28;20428;-65
2023/03/23 11:57:43;;;;;;;0.93;0.60;;;14.80;82.80;;;;;;5060955;28;20448;-76
2023/03/23 12:00:18;;;;;;;1.23;0.60;;;14.80;83.90;;;;;;5051325;28;20838;-77
2023/03/23 12:03:08;;;;;;;2.20;0.70;;;14.80;82.30;;;;;;5073251;28;20573;-76
2023/03/23 12:05:43;;;;;;;1.60;0.60;;;14.80;81.80;;;;;;5054980;28;20449;-75
2023/03/23 12:08:25;;;;;;;1.20;0.60;;;15.00;81.20;;;;;;5053793;28;20738;-80
2023/03/23 12:11:01;;;;;;;1.80;0.70;;;15.10;79.80;;;;;;5066133;28;20430;-76
2023/03/23 12:13:52;;;;;;;1.50;0.70;;;15.20;79.40;;;;;;5048813;28;20427;-78
2023/03/23 12:16:29;;;;;;;2.00;0.90;;;15.20;79.40;;;;;;5056092;28;21205;-76
2023/03/23 12:19:03;;;;;;;2.03;0.70;;;15.20;79.70;;;;;;5058641;28;20432;-76
2023/03/23 12:21:40;;;;;;;1.50;0.70;;;15.20;79.80;;;;;;5055256;28;20435;-76
2023/03/23 12:24:16;;;;;;;1.80;0.70;;;15.20;80.20;;;;;;5056514;28;20434;-72
2023/03/23 12:26:52;;;;;;;1.90;0.90;;;15.30;79.50;;;;;;5059184;28;20441;-71
2023/03/23 12:29:44;;;;;;;1.10;1.00;;;15.50;78.50;;;;;;5045863;28;20491;-73
2023/03/23 12:32:38;;;;;;;1.33;0.70;;;15.50;77.80;;;;;;5045529;28;20448;-72
2023/03/23 12:35:18;;;;;;;1.98;0.88;;;15.80;76.80;;;;;;5050968;28;20436;-72
2023/03/23 12:37:54;;;;;;;2.17;0.90;;;16.10;76.00;;;;;;5061057;28;20432;-74
2023/03/23 12:40:38;;;;;;;3.20;0.90;;;16.20;72.80;;;;;;5071562;28;20482;-75
2023/03/23 12:43:14;;;;;;;2.00;1.10;;;16.10;71.10;;;;;;5066102;28;20429;-70
2023/03/23 12:46:05;;;;;;;2.50;1.20;;;15.90;71.70;;;;;;5061752;28;20466;-74
2023/03/23 12:48:36;;;;;;;2.50;1.17;;;15.70;71.80;;;;;;5060182;28;20526;-74
2023/03/23 12:51:12;;;;;;;2.30;1.20;;;15.50;73.30;;;;;;5063600;28;20425;-74
2023/03/23 12:53:46;;;;;;;3.30;1.40;;;15.40;73.90;;;;;;5066347;28;20425;-74
2023/03/23 12:56:18;;;;;;;2.10;1.30;;;15.40;74.90;;;;;;5062153;28;20418;-75
2023/03/23 12:58:48;;;;;;;2.80;1.20;;;15.40;75.60;;;;;;5057252;28;20429;-74
2023/03/23 13:01:21;;;;;;;2.65;1.30;;;15.50;75.00;;;;;;5067243;28;20780;-74
2023/03/23 13:03:53;;;;;;;1.90;1.10;;;15.60;73.50;;;;;;5058743;28;20424;-72